createdAt,value
2023-05-09T00:01:57.015Z,14.81
2023-05-09T00:04:33.835Z,14.81
2023-05-09T00:07:24.396Z,14.81
2023-05-09T00:09:53.484Z,14.82
2023-05-09T00:13:04.608Z,14.82
2023-05-09T00:15:37.341Z,14.83
2023-05-09T00:18:35.286Z,14.85
2023-05-09T00:21:22.897Z,14.85
2023-05-09T00:24:01.371Z,14.87
2023-05-09T00:26:42.596Z,14.90
2023-05-09T00:29:31.002Z,14.94
2023-05-09T00:32:23.251Z,14.99
2023-05-09T00:35:15.503Z,15.05
2023-05-09T00:38:11.593Z,15.11
2023-05-09T00:41:20.260Z,15.15
2023-05-09T00:44:29.126Z,15.20
2023-05-09T00:47:58.377Z,15.24
2023-05-09T00:50:58.234Z,15.27
2023-05-09T00:53:37.413Z,15.34
2023-05-09T00:56:38.140Z,15.42
2023-05-09T00:59:10.098Z,15.49
2023-05-09T01:01:52.517Z,15.54
2023-05-09T01:04:22.763Z,15.61
2023-05-09T01:07:37.480Z,15.68
2023-05-09T01:10:23.832Z,15.76
2023-05-09T01:13:10.395Z,15.84
2023-05-09T01:15:52.241Z,15.91
2023-05-09T01:19:06.378Z,15.98
2023-05-09T01:21:36.087Z,16.04
2023-05-09T01:24:20.245Z,16.09
2023-05-09T01:27:34.957Z,16.16
2023-05-09T01:30:06.037Z,16.22
2023-05-09T01:32:37.556Z,16.26
2023-05-09T01:35:08.415Z,16.32
2023-05-09T01:37:39.816Z,16.37
2023-05-09T01:40:14.009Z,16.41
2023-05-09T01:42:53.343Z,16.44
2023-05-09T01:45:23.663Z,16.44
2023-05-09T01:47:52.929Z,16.42
2023-05-09T01:50:23.217Z,16.40
2023-05-09T01:52:56.453Z,16.38
2023-05-09T01:55:28.964Z,16.33
2023-05-09T01:58:00.276Z,16.27
2023-05-09T02:00:29.737Z,16.21
2023-05-09T02:02:59.926Z,16.13
2023-05-09T02:05:33.260Z,16.04
2023-05-09T02:08:02.695Z,15.96
2023-05-09T02:10:33.074Z,15.85
2023-05-09T02:13:02.541Z,15.74
2023-05-09T02:15:32.516Z,15.64
2023-05-09T02:18:00.939Z,15.54
2023-05-09T02:20:30.261Z,15.45
2023-05-09T02:22:59.314Z,15.38
2023-05-09T02:25:28.455Z,15.30
2023-05-09T02:27:59.260Z,15.23
2023-05-09T02:30:36.092Z,15.17
2023-05-09T02:33:08.610Z,15.10
2023-05-09T02:35:43.486Z,15.05
2023-05-09T02:38:34.852Z,14.99
2023-05-09T02:41:06.950Z,14.93
2023-05-09T02:43:53.587Z,14.89
2023-05-09T02:46:27.652Z,14.87
2023-05-09T02:49:31.644Z,14.84
2023-05-09T02:52:26.280Z,14.78
2023-05-09T02:54:55.360Z,14.73
2023-05-09T02:57:46.308Z,14.69
2023-05-09T03:01:05.169Z,14.65
2023-05-09T03:03:57.356Z,14.58
2023-05-09T03:07:02.647Z,14.52
2023-05-09T03:09:34.377Z,14.47
2023-05-09T03:12:43.967Z,14.44
2023-05-09T03:16:03.525Z,14.40
2023-05-09T03:18:41.733Z,14.36
2023-05-09T03:21:15.941Z,14.33
2023-05-09T03:24:04.697Z,14.28
2023-05-09T03:27:33.422Z,14.22
2023-05-09T03:30:14.449Z,14.14
2023-05-09T03:33:43.159Z,14.10
2023-05-09T03:36:21.201Z,14.04
2023-05-09T03:39:40.138Z,14.00
2023-05-09T03:43:09.588Z,13.95
2023-05-09T03:50:01.267Z,13.80
2023-05-09T03:52:51.582Z,13.74
2023-05-09T03:56:04.079Z,13.70
2023-05-09T03:59:07.671Z,13.69
2023-05-09T04:02:35.958Z,13.67
2023-05-09T04:06:04.986Z,13.63
2023-05-09T04:09:34.399Z,13.60
2023-05-09T04:12:32.067Z,13.59
2023-05-09T04:15:52.718Z,13.59
2023-05-09T04:19:12.883Z,13.62
2023-05-09T04:22:30.510Z,13.64
2023-05-09T04:25:59.265Z,13.66
2023-05-09T04:29:27.996Z,13.68
2023-05-09T04:32:49.983Z,13.71
2023-05-09T04:36:18.881Z,13.74
2023-05-09T04:39:47.329Z,13.77
2023-05-09T04:42:17.481Z,13.77
2023-05-09T04:45:10.453Z,13.77
2023-05-09T04:48:38.566Z,13.77
2023-05-09T04:52:04.342Z,13.78
2023-05-09T04:55:13.268Z,13.78
2023-05-09T04:57:47.056Z,13.76
2023-05-09T05:00:57.467Z,13.73
2023-05-09T05:04:08.120Z,13.68
2023-05-09T05:07:26.064Z,13.64
2023-05-09T05:10:55.103Z,13.61
2023-05-09T05:14:23.994Z,13.58
2023-05-09T05:17:53.692Z,13.56
2023-05-09T05:21:23.028Z,13.54
2023-05-09T05:24:32.583Z,13.51
2023-05-09T05:27:51.947Z,13.44
2023-05-09T05:30:59.987Z,13.31
2023-05-09T05:34:29.311Z,13.17
2023-05-09T05:37:42.579Z,13.03
2023-05-09T05:40:52.248Z,12.89
2023-05-09T05:44:21.552Z,12.74
2023-05-09T05:47:38.521Z,12.61
2023-05-09T05:51:07.481Z,12.48
2023-05-09T05:54:10.987Z,12.36
2023-05-09T05:57:10.914Z,12.25
2023-05-09T06:00:22.996Z,12.15
2023-05-09T06:03:15.209Z,12.05
2023-05-09T06:06:44.645Z,11.97
2023-05-09T06:10:03.735Z,11.87
2023-05-09T06:13:33.109Z,11.77
2023-05-09T06:17:02.753Z,11.69
2023-05-09T06:20:31.866Z,11.61
2023-05-09T06:23:56.868Z,11.52
2023-05-09T06:27:30.682Z,11.45
2023-05-09T06:31:01.130Z,11.38
2023-05-09T06:33:38.315Z,11.33
2023-05-09T06:36:47.686Z,11.31
2023-05-09T06:39:56.919Z,11.28
2023-05-09T06:42:50.073Z,11.24
2023-05-09T06:46:19.420Z,11.19
2023-05-09T06:49:48.445Z,11.13
2023-05-09T06:53:00.606Z,11.07
2023-05-09T06:56:21.094Z,11.00
2023-05-09T06:59:50.865Z,10.95
2023-05-09T07:03:19.462Z,10.92
2023-05-09T07:06:48.817Z,10.92
2023-05-09T07:10:27.101Z,10.94
2023-05-09T07:13:56.728Z,10.96
2023-05-09T07:17:27.371Z,10.98
2023-05-09T07:20:36.749Z,11.03
2023-05-09T07:23:30.607Z,11.07
2023-05-09T07:26:59.920Z,11.12
2023-05-09T07:30:12.537Z,11.18
2023-05-09T07:32:47.603Z,11.22
2023-05-09T07:35:59.892Z,11.26
2023-05-09T07:39:28.858Z,11.29
2023-05-09T07:42:58.424Z,11.33
2023-05-09T07:46:28.129Z,11.36
2023-05-09T07:49:57.826Z,11.37
2023-05-09T07:53:07.774Z,11.37
2023-05-09T07:56:35.572Z,11.38
2023-05-09T07:59:28.485Z,11.37
2023-05-09T08:02:58.272Z,11.37
2023-05-09T08:06:28.391Z,11.38
2023-05-09T08:09:57.463Z,11.38
2023-05-09T08:13:26.780Z,11.39
2023-05-09T08:16:56.130Z,11.39
2023-05-09T08:20:15.865Z,11.40
2023-05-09T08:23:08.746Z,11.40
2023-05-09T08:26:27.728Z,11.39
2023-05-09T08:29:57.118Z,11.39
2023-05-09T08:33:26.264Z,11.37
2023-05-09T08:36:45.799Z,11.36
2023-05-09T08:40:05.465Z,11.32
2023-05-09T08:43:24.845Z,11.27
2023-05-09T08:46:37.324Z,11.23
2023-05-09T08:49:47.002Z,11.17
2023-05-09T08:53:16.205Z,11.12
2023-05-09T08:56:45.518Z,11.05
2023-05-09T09:00:15.502Z,10.98
2023-05-09T09:03:46.556Z,10.90
2023-05-09T09:07:16.112Z,10.84
2023-05-09T09:10:49.593Z,10.74
2023-05-09T09:14:18.770Z,10.68
2023-05-09T09:17:49.551Z,10.63
2023-05-09T09:21:05.267Z,10.56
2023-05-09T09:24:24.802Z,10.51
2023-05-09T09:27:44.277Z,10.46
2023-05-09T09:31:14.952Z,10.42
2023-05-09T09:34:17.477Z,10.39
2023-05-09T09:37:46.770Z,10.36
2023-05-09T09:41:15.866Z,10.33
2023-05-09T09:43:48.274Z,10.31
2023-05-09T09:47:08.954Z,10.30
2023-05-09T09:50:18.429Z,10.27
2023-05-09T09:53:53.659Z,10.24
2023-05-09T09:57:29.036Z,10.19
2023-05-09T10:01:00.991Z,10.14
2023-05-09T10:04:30.381Z,10.13
2023-05-09T10:07:55.792Z,10.11
2023-05-09T10:11:26.800Z,10.08
2023-05-09T10:14:56.148Z,10.07
2023-05-09T10:18:09.658Z,10.09
2023-05-09T10:21:38.910Z,10.12
2023-05-09T10:24:52.219Z,10.17
2023-05-09T10:28:21.167Z,10.23
2023-05-09T10:32:05.265Z,10.27
2023-05-09T10:35:18.191Z,10.32
2023-05-09T10:38:47.427Z,10.36
2023-05-09T10:42:16.503Z,10.42
2023-05-09T10:45:46.216Z,10.46
2023-05-09T10:49:15.841Z,10.50
2023-05-09T10:52:25.028Z,10.55
2023-05-09T10:55:40.430Z,10.60
2023-05-09T10:59:09.781Z,10.65
2023-05-09T11:02:24.251Z,10.67
2023-05-09T11:05:56.829Z,10.67
2023-05-09T11:09:31.798Z,10.66
2023-05-09T11:13:03.937Z,10.69
2023-05-09T11:16:33.776Z,10.67
2023-05-09T11:19:03.018Z,10.67
2023-05-09T11:22:18.329Z,10.68
2023-05-09T11:25:06.293Z,10.68
2023-05-09T11:28:32.213Z,10.67
2023-05-09T11:31:53.594Z,10.68
2023-05-09T11:34:56.193Z,10.72
2023-05-09T11:38:34.253Z,10.71
2023-05-09T11:41:32.999Z,10.70
2023-05-09T11:44:53.178Z,10.72
2023-05-09T11:48:23.595Z,10.78
2023-05-09T11:51:17.270Z,10.80
2023-05-09T11:54:39.356Z,10.79
2023-05-09T11:58:08.351Z,10.76
2023-05-09T12:01:37.536Z,10.71
2023-05-09T12:04:57.167Z,10.64
2023-05-09T12:08:09.053Z,10.58
2023-05-09T12:11:41.927Z,10.51
2023-05-09T12:15:01.527Z,10.46
2023-05-09T12:18:43.982Z,10.40
2023-05-09T12:21:29.240Z,10.34
2023-05-09T12:24:27.783Z,10.29
2023-05-09T12:27:47.525Z,10.24
2023-05-09T12:31:16.899Z,10.17
2023-05-09T12:34:46.197Z,10.14
2023-05-09T12:37:21.842Z,10.12
2023-05-09T12:41:18.833Z,10.10
2023-05-09T12:45:05.615Z,10.07
2023-05-09T12:47:55.623Z,10.05
2023-05-09T12:51:15.587Z,10.03
2023-05-09T12:53:57.226Z,10.01
2023-05-09T12:57:26.734Z,9.98
2023-05-09T13:00:57.363Z,9.96
2023-05-09T13:03:38.781Z,9.95
2023-05-09T13:06:58.379Z,9.93
2023-05-09T13:10:29.904Z,9.92
2023-05-09T13:13:29.124Z,9.90
2023-05-09T13:16:00.599Z,9.88
2023-05-09T13:19:23.580Z,9.86
2023-05-09T13:22:13.890Z,9.83
2023-05-09T13:25:02.945Z,9.85
2023-05-09T13:28:32.478Z,9.89
2023-05-09T13:32:01.809Z,9.95
2023-05-09T13:35:31.178Z,9.99
2023-05-09T13:38:43.343Z,10.03
2023-05-09T13:41:53.041Z,10.09
2023-05-09T13:44:49.452Z,10.17
2023-05-09T13:48:02.412Z,10.24
2023-05-09T13:51:08.372Z,10.30
2023-05-09T13:54:20.697Z,10.36
2023-05-09T13:57:06.930Z,10.43
2023-05-09T13:59:39.503Z,10.49
2023-05-09T14:02:19.917Z,10.55
2023-05-09T14:04:59.883Z,10.63
2023-05-09T14:08:28.378Z,10.70
2023-05-09T14:11:16.875Z,10.80
2023-05-09T14:14:22.312Z,10.86
2023-05-09T14:17:07.769Z,10.92
2023-05-09T14:20:00.426Z,10.98
2023-05-09T14:22:55.365Z,11.03
2023-05-09T14:26:24.093Z,11.08
2023-05-09T14:29:43.253Z,11.13
2023-05-09T14:32:15.718Z,11.19
2023-05-09T14:35:39.651Z,11.23
2023-05-09T14:39:03.158Z,11.27
2023-05-09T14:42:31.409Z,11.33
2023-05-09T14:45:50.102Z,11.41
2023-05-09T14:49:05.103Z,11.46
2023-05-09T14:52:14.949Z,11.51
2023-05-09T14:55:17.197Z,11.54
2023-05-09T14:58:26.104Z,11.55
2023-05-09T15:01:35.691Z,11.54
2023-05-09T15:04:45.892Z,11.50
2023-05-09T15:08:14.981Z,11.46
2023-05-09T15:11:47.774Z,11.45
2023-05-09T15:15:10.244Z,11.40
2023-05-09T15:18:21.880Z,11.40
2023-05-09T15:21:47.728Z,11.38
2023-05-09T15:24:49.414Z,11.36
2023-05-09T15:28:18.778Z,11.36
2023-05-09T15:31:48.232Z,11.37
2023-05-09T15:35:17.636Z,11.37
2023-05-09T15:38:24.739Z,11.38
2023-05-09T15:41:54.369Z,11.37
2023-05-09T15:44:53.573Z,11.38
2023-05-09T15:47:23.120Z,11.39
2023-05-09T15:50:35.281Z,11.41
2023-05-09T15:53:53.461Z,11.43
2023-05-09T15:57:15.496Z,11.41
2023-05-09T16:00:33.400Z,11.38
2023-05-09T16:03:41.537Z,11.35
2023-05-09T16:07:10.532Z,11.30
2023-05-09T16:10:11.512Z,11.27
2023-05-09T16:13:41.078Z,11.22
2023-05-09T16:16:53.851Z,11.19
2023-05-09T16:19:43.662Z,11.13
2023-05-09T16:23:05.784Z,11.08
2023-05-09T16:26:24.568Z,11.04
2023-05-09T16:29:43.251Z,11.04
2023-05-09T16:32:46.504Z,11.08
2023-05-09T16:36:15.703Z,11.13
2023-05-09T16:39:45.076Z,11.17
2023-05-09T16:43:07.253Z,11.18
2023-05-09T16:46:19.061Z,11.23
2023-05-09T16:49:30.691Z,11.27
2023-05-09T16:52:59.017Z,11.34
2023-05-09T16:56:18.502Z,11.39
2023-05-09T16:59:38.446Z,11.43
2023-05-09T17:02:57.252Z,11.46
2023-05-09T17:06:06.701Z,11.52
2023-05-09T17:09:18.890Z,11.58
2023-05-09T17:12:35.976Z,11.60
2023-05-09T17:15:40.075Z,11.64
2023-05-09T17:19:09.378Z,11.69
2023-05-09T17:22:38.585Z,11.75
2023-05-09T17:26:01.380Z,11.80
2023-05-09T17:29:21.277Z,11.83
2023-05-09T17:32:50.482Z,11.87
2023-05-09T17:35:39.707Z,11.92
2023-05-09T17:38:48.868Z,11.94
2023-05-09T17:41:34.295Z,11.98
2023-05-09T17:44:45.017Z,12.00
2023-05-09T17:48:04.633Z,12.02
2023-05-09T17:51:23.952Z,12.06
2023-05-09T17:54:35.204Z,12.08
2023-05-09T17:57:57.032Z,12.13
2023-05-09T18:01:26.292Z,12.18
2023-05-09T18:04:45.727Z,12.22
2023-05-09T18:07:58.190Z,12.22
2023-05-09T18:11:26.316Z,12.22
2023-05-09T18:13:55.387Z,12.24
2023-05-09T18:16:48.950Z,12.26
2023-05-09T18:19:20.829Z,12.32
2023-05-09T18:22:39.772Z,12.40
2023-05-09T18:26:09.433Z,12.50
2023-05-09T18:29:02.468Z,12.58
2023-05-09T18:32:13.362Z,12.62
2023-05-09T18:35:33.307Z,12.65
2023-05-09T18:38:39.222Z,12.65
2023-05-09T18:41:35.773Z,12.69
2023-05-09T18:44:18.936Z,12.71
2023-05-09T18:46:47.770Z,12.75
2023-05-09T18:49:20.119Z,12.76
2023-05-09T18:51:55.990Z,12.74
2023-05-09T18:54:45.510Z,12.76
2023-05-09T18:57:38.859Z,12.77
2023-05-09T19:00:41.832Z,12.74
2023-05-09T19:03:33.909Z,12.73
2023-05-09T19:06:27.865Z,12.73
2023-05-09T19:09:19.960Z,12.78
2023-05-09T19:12:31.933Z,12.79
2023-05-09T19:15:39.879Z,12.78
2023-05-09T19:18:38.445Z,12.82
2023-05-09T19:21:49.128Z,12.89
2023-05-09T19:24:48.191Z,12.95
2023-05-09T19:27:43.394Z,12.99
2023-05-09T19:30:52.672Z,13.01
2023-05-09T19:33:30.114Z,13.07
2023-05-09T19:36:22.510Z,13.12
2023-05-09T19:39:21.644Z,13.12
2023-05-09T19:41:53.895Z,13.14
2023-05-09T19:44:41.783Z,13.21
2023-05-09T19:47:31.020Z,13.29
2023-05-09T19:50:03.130Z,13.36
2023-05-09T19:52:38.273Z,13.41
2023-05-09T19:55:11.430Z,13.46
2023-05-09T19:58:01.852Z,13.50
2023-05-09T20:00:57.873Z,13.54
2023-05-09T20:04:06.265Z,13.58
2023-05-09T20:06:55.499Z,13.64
2023-05-09T20:10:07.751Z,13.71
2023-05-09T20:12:40.066Z,13.77
2023-05-09T20:15:19.405Z,13.81
2023-05-09T20:18:34.355Z,13.86
2023-05-09T20:21:46.974Z,13.93
2023-05-09T20:24:44.761Z,13.99
2023-05-09T20:27:40.739Z,14.05
2023-05-09T20:30:59.906Z,14.12
2023-05-09T20:33:59.680Z,14.21
2023-05-09T20:37:18.646Z,14.27
2023-05-09T20:40:23.078Z,14.31
2023-05-09T20:43:21.569Z,14.35
2023-05-09T20:46:23.900Z,14.41
2023-05-09T20:48:56.136Z,14.47
2023-05-09T20:51:53.473Z,14.54
2023-05-09T20:54:23.834Z,14.60
2023-05-09T20:57:13.273Z,14.64
2023-05-09T20:59:51.829Z,14.70
2023-05-09T21:02:47.129Z,14.74
2023-05-09T21:05:20.051Z,14.78
2023-05-09T21:08:50.680Z,14.81
2023-05-09T21:11:35.266Z,14.83
2023-05-09T21:14:13.464Z,14.83
2023-05-09T21:17:05.900Z,14.88
2023-05-09T21:19:55.034Z,14.93
2023-05-09T21:22:27.429Z,14.96
2023-05-09T21:25:19.342Z,14.94
2023-05-09T21:27:51.498Z,14.93
2023-05-09T21:31:12.342Z,14.94
2023-05-09T21:33:50.239Z,14.93
2023-05-09T21:36:25.272Z,14.92
2023-05-09T21:38:55.208Z,14.92
2023-05-09T21:41:36.395Z,14.92
2023-05-09T21:44:35.462Z,14.95
2023-05-09T21:47:41.997Z,14.97
2023-05-09T21:50:14.237Z,15.00
2023-05-09T21:53:02.388Z,15.03
2023-05-09T21:55:51.818Z,15.04
2023-05-09T21:59:04.261Z,15.06
2023-05-09T22:01:49.658Z,15.06
2023-05-09T22:04:38.169Z,15.06
2023-05-09T22:08:08.964Z,15.07
2023-05-09T22:10:45.640Z,15.09
2023-05-09T22:13:29.631Z,15.07
2023-05-09T22:16:09.567Z,15.10
2023-05-09T22:18:38.270Z,15.13
2023-05-09T22:21:10.500Z,15.17
2023-05-09T22:23:39.477Z,15.23
2023-05-09T22:26:11.372Z,15.26
2023-05-09T22:29:07.861Z,15.30
2023-05-09T22:31:36.833Z,15.34
2023-05-09T22:34:05.879Z,15.35
2023-05-09T22:36:37.406Z,15.36
2023-05-09T22:39:06.915Z,15.36
2023-05-09T22:41:44.511Z,15.38
2023-05-09T22:44:14.095Z,15.41
2023-05-09T22:46:48.764Z,15.42
2023-05-09T22:49:29.984Z,15.42
2023-05-09T22:52:01.794Z,15.43
2023-05-09T22:54:43.248Z,15.41
2023-05-09T22:57:32.801Z,15.42
2023-05-09T23:00:12.543Z,15.47
2023-05-09T23:03:04.613Z,15.51
2023-05-09T23:06:19.666Z,15.52
2023-05-09T23:09:12.316Z,15.54
2023-05-09T23:12:25.163Z,15.54
2023-05-09T23:14:54.573Z,15.52
2023-05-09T23:17:26.626Z,15.51
2023-05-09T23:20:28.877Z,15.51
2023-05-09T23:22:58.037Z,15.47
2023-05-09T23:25:27.196Z,15.44
2023-05-09T23:28:26.983Z,15.41
2023-05-09T23:30:56.591Z,15.36
2023-05-09T23:33:25.928Z,15.33
2023-05-09T23:35:59.191Z,15.27
2023-05-09T23:38:39.210Z,15.18
2023-05-09T23:41:08.437Z,15.10
2023-05-09T23:43:58.591Z,15.05
2023-05-09T23:46:28.788Z,14.99
2023-05-09T23:49:01.161Z,14.96
2023-05-09T23:51:43.449Z,14.93
2023-05-09T23:54:12.556Z,14.89
2023-05-09T23:57:13.629Z,14.85
2023-05-09T23:59:45.896Z,14.77
